PMDY METAR and TAF weather

Enter ICAO airport designator
Station Type Date Time Source
PMDY METAR 2020/07/06 01:56 UTC NOAA

PMDY 060156Z AUTO 02010KT 8SM SCT020 27/21 A2995 RMK AO2 SLP139 T02670206


Station Type Date Time Source
PMDY Decoded METAR 2020/07/06 01:56 UTC NOAA

Sand Island, Henderson Field Airport, HI, United States (PMDY) 28-13N 177-22W 6M
Jul 05, 2020 - 09:56 PM EDT / 2020.07.06 0156 UTC
Wind: from the NNE (020 degrees) at 12 MPH (10 KT):0
Visibility: 8 mile(s):0
Sky conditions: partly cloudy
Temperature: 80.1 F (26.7 C)
Dew Point: 69.1 F (20.6 C)
Relative Humidity: 69%
Pressure (altimeter): 29.95 in. Hg (1014 hPa)
ob: PMDY 060156Z AUTO 02010KT 8SM SCT020 27/21 A2995 RMK AO2 SLP139 T02670206
cycle: 2

Station Type Date Time Source
PMDY TAF 2020/07/05 18:36 UTC NOAA

TAF PMDY 051735Z 0518/0618 04008KT P6SM SCT025 BKN040

Example: see airport list